Aérodrome :







RETROUVEZ-NOUS SUR...

 
LOGIN :

S'inscrire | Disclaimer

   EN    FR    IT 

 









Légende :    VFR   VFR Marginal   IFR   IFR Intensif   IFR Très Intensif
Visi : 
Plafond : 
>= 8 km
>= 3000ft
5 à 8 km
1000 à 3000 ft
1500m à 5 km
500 à 1000 ft
800 à 1500m
200 à 500 ft
< 800m
< 200 ft
Symboles :   Orages  Brouillard  Fortes neiges  Fortes précipitations  Vent > 20 kt






- Altitude de l'aérodrome : 203 ft
- Code IATA : YQY


CYQY - Sydney

DERNIER METAR :
  • 100800Z 20025G36KT 15SM -RA FEW015 SCT058 OVC080 10/07 A3002 RMK ST1SC2AS5 PRESFR SLP170

METARs EXPIRÉS :
  • 100732Z 19027G37KT 15SM -RA FEW013 OVC090 10/07 A3006 RMK ST2AS6 SLP181
  • 100700Z 19019G31KT 15SM FEW015 OVC100 09/07 A3008 RMK ST2AS6 PRESFR SLP188
  • 100600Z 20020G32KT 15SM FEW015 BKN053 OVC100 09/07 A3015 RMK ST2SC5AS1 SLP214
  • 100500Z 19021G29KT 15SM FEW016 SCT042 OVC090 08/06 A3018 RMK ST1SC2AS5 PRESFR SLP223

TAF TAF CYQY
Valide du 10 à 06h jusqu'au 10 à 18h UTC


100538Z 1006/1018 19020G30KT P6SM SCT015 BKN040 OVC090
TEMPO 1006/1009 4SM -RA BR OVC015
FM100900 19020G35KT 6SM -RA BR OVC010
TEMPO 1009/1015 2SM -RA BR OVC005
BECMG 1010/1012 19025G40KT
FM101500 21025G35KT 3SM -DZ BR OVC007
TEMPO 1015/1018 6SM BR OVC015
BECMG 1016/1018 22020G30KT RMK NXT FCST BY 101200Z



MET'MAP, la Météo Aéronautique d'un coup d'oeil ! - Copyright ORBIFLY Décembre 2007 - Disclaimer

ORBIFLY MET'MAP TEAM :

Programmation & Développement : Alexandra Zaïnal
Sur une idée originale de : Baudouin d'Aumeries
Assistance à la programmation : Marc-Olivier Méhu
Soutien technique & logistique : Manuel Goepfert

Contact : metmap@orbifly.com




SOURCES & CREDITS :

   NOAA